Portada
METAR-TAF:

METAR-TAF

Aeropuertos :

Yida, Arabia Saudita

Aeropuerto Internacional Rey Abdulaziz

latitud: 21-42N, longitud: 039-11E, altitud: 15 m

Observación

El informe se hizo hace 59 minutos, a las 21:00 UTC
Viento 10 kt del norte
Temperatura 31°C
Humedad 63%
Presión 1006 hPa
Visibilidad 10 km o más
Escasas nubes a una altura de 4000 ft

METAR: OEJN 232100Z 01010KT 9999 FEW040 31/23 Q1006 NOSIG

Hora: 00:59 (21:59 UTC)

Pronóstico

El informe se hizo hace 4 horas y 59 minutos, a las 17:00 UTC
Pronóstico válido del 23 a las 18 UTC al 24 a las 24 UTC
Viento 8 kt del norte
Visibilidad: 7000 m
Escasas nubes a una altura de 4000 ft
Evolucionando progresivamente
del 24 a las 06 UTC al 24 a las 08 UTC
Viento 16 kt del norte-noroeste

TAF: OEJN 231700Z 2318/2424 01008KT 7000 FEW040 BECMG 2406/2408 33016KT

Observaciones y pronósticos meteorológicos de más de 4000 aeropuertos (mensajes METAR y TAF).

Los puntos amarillos y rojos representan las estaciones disponibles.

Ponga el ratón en el punto deseado para ver el nombre de la estación.

Haga clic para ver las observaciones y los pronósticos meteorológicos.

Para cambiar el mapa : haga clic en los botones verdes con una cruz de color negro para hacer un zoom, en el botón verde con un guión para alejar o en las flechas verdes para mapas adyacentes.


METAR-TAF: